Rawlins, WY

9:56 AM MST on November 28, 2014 (GMT -0700)
Rawlins Municipal | Change Station
CLOSE
Current Station
Airport
Location: Rawlins,
Elevation: 6814 ft
Nearby Weather Stations

Elev 6814 ft 41.81 °N, 107.20 °W | Updated 1 hour ago

Clear
Clear
46 °F
Feels Like 39 °F
N
17
Wind Variable Wind from WSW
Gusts 28 mph

Today
High -- | Low -- °F
--% Chance of Precip.
Yesterday
High -- | Low -- °F
Precip. -- in
7:13 AM 4:39 PM
Waxing Crescent, 42% visible
Pressure 29.91 in
Visibility 10.0 miles
Clouds Clear
Windchill 39 °F
Dew Point 14 °F
Humidity 28%
Rainfall 0.00 in
Snow Depth Not available.
UV 1 out of 12
Pollen .10 out of 12
Air Quality Not available.
Flu Activity Not available.
METAR KRWL 281553Z AUTO 25015G24KT 10SM CLR 08/M10 A3001 RMK AO2 PK WND 24026/1512 SLP127 T00781100

More Conditions Fewer Conditions

Pressure 29.91 in
Visibility 10.0 miles
Clouds Clear
Windchill 39 °F
Dew Point 14 °F
Humidity 28%
Rainfall 0.00 in
Snow Depth Not available.
UV 1 out of 12
Pollen .10 out of 12
Air Quality Not available.
Flu Activity Not available.
METAR KRWL 281553Z AUTO 25015G24KT 10SM CLR 08/M10 A3001 RMK AO2 PK WND 24026/1512 SLP127 T00781100

More Conditions Fewer Conditions

10-Day Weather Forecast

Almanac

Astronomy

Nov. 28, 2014 Rise Set
Actual Time
Civil Twilight
Nautical Twilight
Astronomical Twilight
Moon
Length of Visible Light
Length of Day
Tomorrow will be .
, % of the Moon is Illuminated

Today's Extremes

State Highs State Lows

Community

WunderPhotos

Upload Photos

1,774,235 photos uploaded!

WunderBlogs® & News

Nearby

Air Quality

  Air Quality AQ Index Pollutant
Not available.

Snow Depth

Station Depth Elevation

Earthquake Activity

City Distance Mag. Time & Date
Minimum magnitude displayed is 2.5.

Coastal Water Temperatures

Place Temperature

Nearby Weather Stations